createdAt,value
2022-09-16T00:01:22.024Z,3.03
2022-09-16T00:03:55.744Z,4.43
2022-09-16T00:06:27.628Z,5.65
2022-09-16T00:08:58.030Z,5.20
2022-09-16T00:11:26.030Z,5.53
2022-09-16T00:13:54.056Z,2.93
2022-09-16T00:16:26.829Z,2.37
2022-09-16T00:18:55.660Z,3.60
2022-09-16T00:21:25.029Z,6.23
2022-09-16T00:23:53.046Z,4.63
2022-09-16T00:26:20.953Z,3.47
2022-09-16T00:28:50.634Z,3.80
2022-09-16T00:31:18.635Z,5.20
2022-09-16T00:33:47.825Z,3.67
2022-09-16T00:36:19.177Z,3.03
2022-09-16T00:38:52.074Z,5.00
2022-09-16T00:41:24.427Z,7.40
2022-09-16T00:43:56.966Z,7.10
2022-09-16T00:46:36.346Z,7.47
2022-09-16T00:49:15.180Z,3.70
2022-09-16T00:51:47.840Z,4.60
2022-09-16T00:54:20.403Z,3.77
2022-09-16T00:56:54.213Z,2.50
2022-09-16T00:59:28.378Z,3.60
2022-09-16T01:02:03.380Z,5.70
2022-09-16T01:04:41.617Z,5.50
2022-09-16T01:07:09.838Z,4.67
2022-09-16T01:09:39.752Z,4.70
2022-09-16T01:12:07.597Z,3.87
2022-09-16T01:14:53.714Z,3.77
2022-09-16T01:17:44.999Z,5.43
2022-09-16T01:20:58.591Z,4.77
2022-09-16T01:24:07.634Z,4.83
2022-09-16T01:27:26.282Z,3.67
2022-09-16T01:30:51.054Z,4.23
2022-09-16T01:33:38.495Z,4.47
2022-09-16T01:36:36.487Z,5.93
2022-09-16T01:39:19.237Z,6.87
2022-09-16T01:42:12.842Z,7.20
2022-09-16T01:44:51.958Z,7.97
2022-09-16T01:47:31.396Z,8.50
2022-09-16T01:50:13.499Z,5.83
2022-09-16T01:52:54.571Z,8.50
2022-09-16T01:55:32.879Z,5.70
2022-09-16T01:58:12.321Z,6.83
2022-09-16T02:00:45.129Z,7.97
2022-09-16T02:03:22.433Z,7.10
2022-09-16T02:06:00.075Z,7.40
2022-09-16T02:08:37.690Z,5.40
2022-09-16T02:11:13.759Z,4.50
2022-09-16T02:13:46.597Z,3.90
2022-09-16T02:16:22.020Z,5.93
2022-09-16T02:18:57.520Z,6.68
2022-09-16T02:21:31.979Z,6.70
2022-09-16T02:24:05.677Z,6.20
2022-09-16T02:26:40.050Z,6.50
2022-09-16T02:29:15.643Z,7.28
2022-09-16T02:31:45.706Z,7.43
2022-09-16T02:34:18.515Z,6.53
2022-09-16T02:36:55.466Z,6.30
2022-09-16T02:39:30.649Z,10.10
2022-09-16T02:42:01.128Z,9.10
2022-09-16T02:44:29.547Z,7.97
2022-09-16T02:47:05.804Z,9.10
2022-09-16T02:49:44.180Z,7.90
2022-09-16T02:52:28.129Z,9.57
2022-09-16T02:55:05.774Z,10.87
2022-09-16T02:57:33.733Z,7.67
2022-09-16T03:00:02.146Z,10.20
2022-09-16T03:02:32.951Z,8.33
2022-09-16T03:05:01.237Z,8.63
2022-09-16T03:07:30.841Z,7.40
2022-09-16T03:10:00.351Z,9.07
2022-09-16T03:12:54.594Z,7.53
2022-09-16T03:15:38.319Z,6.17
2022-09-16T03:18:33.166Z,10.07
2022-09-16T03:21:14.860Z,10.50
2022-09-16T03:23:57.545Z,8.93
2022-09-16T03:26:36.823Z,7.63
2022-09-16T03:29:18.025Z,9.00
2022-09-16T03:31:56.007Z,8.80
2022-09-16T03:34:31.828Z,10.17
2022-09-16T03:37:07.988Z,7.30
2022-09-16T03:39:39.112Z,6.93
2022-09-16T03:42:11.412Z,8.83
2022-09-16T03:44:41.073Z,7.60
2022-09-16T03:47:10.464Z,9.13
2022-09-16T03:49:39.340Z,9.33
2022-09-16T03:52:08.533Z,6.73
2022-09-16T03:54:38.542Z,7.13
2022-09-16T03:57:06.780Z,6.37
2022-09-16T03:59:34.704Z,5.30
2022-09-16T04:02:03.053Z,8.07
2022-09-16T04:04:30.790Z,6.73
2022-09-16T04:06:58.606Z,7.97
2022-09-16T04:09:26.362Z,5.83
2022-09-16T04:11:55.998Z,6.63
2022-09-16T04:14:24.306Z,7.50
2022-09-16T04:16:52.124Z,7.97
2022-09-16T04:19:20.258Z,5.90
2022-09-16T04:21:48.118Z,6.37
2022-09-16T04:24:17.505Z,4.53
2022-09-16T04:26:45.755Z,4.70
2022-09-16T04:29:15.937Z,3.83
2022-09-16T04:31:43.997Z,4.97
2022-09-16T04:34:12.428Z,4.17
2022-09-16T04:36:40.241Z,3.90
2022-09-16T04:39:08.434Z,3.70
2022-09-16T04:41:36.381Z,4.47
2022-09-16T04:44:05.702Z,4.53
2022-09-16T04:46:35.456Z,5.83
2022-09-16T04:49:03.946Z,4.13
2022-09-16T04:51:32.766Z,6.47
2022-09-16T04:54:01.569Z,4.07
2022-09-16T04:56:33.404Z,4.10
2022-09-16T04:59:05.103Z,2.87
2022-09-16T05:01:38.661Z,5.50
2022-09-16T05:04:08.196Z,6.13
2022-09-16T05:06:38.615Z,4.10
2022-09-16T05:09:09.599Z,3.97
2022-09-16T05:11:40.126Z,4.73
2022-09-16T05:14:13.158Z,3.77
2022-09-16T05:16:42.909Z,3.77
2022-09-16T05:19:13.081Z,5.47
2022-09-16T05:21:41.904Z,3.60
2022-09-16T05:24:13.693Z,4.97
2022-09-16T05:26:43.454Z,2.97
2022-09-16T05:29:14.329Z,4.37
2022-09-16T05:31:48.543Z,3.57
2022-09-16T05:34:19.178Z,2.70
2022-09-16T05:36:49.375Z,3.77
2022-09-16T05:39:26.282Z,3.57
2022-09-16T05:41:57.995Z,3.20
2022-09-16T05:44:27.520Z,6.20
2022-09-16T05:46:56.894Z,4.17
2022-09-16T05:49:25.608Z,3.93
2022-09-16T05:51:54.597Z,4.53
2022-09-16T05:54:24.950Z,2.90
2022-09-16T05:56:53.005Z,4.40
2022-09-16T05:59:20.873Z,5.27
2022-09-16T06:01:48.601Z,2.63
2022-09-16T06:04:17.887Z,3.72
2022-09-16T06:06:46.985Z,5.80
2022-09-16T06:09:17.519Z,5.93
2022-09-16T06:11:48.690Z,4.70
2022-09-16T06:14:19.713Z,5.57
2022-09-16T06:16:48.691Z,7.45
2022-09-16T06:19:18.664Z,4.53
2022-09-16T06:21:47.517Z,4.57
2022-09-16T06:24:17.590Z,5.05
2022-09-16T06:26:47.473Z,3.43
2022-09-16T06:29:16.569Z,5.05
2022-09-16T06:31:44.823Z,4.63
2022-09-16T06:34:18.749Z,5.57
2022-09-16T06:36:47.575Z,4.13
2022-09-16T06:39:17.965Z,5.33
2022-09-16T06:41:46.182Z,5.73
2022-09-16T06:44:14.477Z,3.63
2022-09-16T06:46:42.274Z,3.38
2022-09-16T06:49:11.123Z,4.73
2022-09-16T06:51:40.401Z,3.60
2022-09-16T06:54:09.937Z,3.93
2022-09-16T06:56:41.459Z,3.97
2022-09-16T06:59:11.096Z,4.35
2022-09-16T07:01:39.343Z,2.55
2022-09-16T07:04:13.542Z,3.70
2022-09-16T07:07:08.019Z,2.40
2022-09-16T07:09:32.427Z,3.33
2022-09-16T07:12:01.165Z,5.07
2022-09-16T07:14:32.336Z,2.50
2022-09-16T07:17:01.229Z,4.18
2022-09-16T07:19:29.552Z,2.40
2022-09-16T07:21:58.851Z,1.83
2022-09-16T07:24:26.790Z,1.65
2022-09-16T07:26:54.667Z,4.40
2022-09-16T07:29:22.424Z,2.05
2022-09-16T07:31:50.237Z,2.65
2022-09-16T07:34:18.366Z,1.73
2022-09-16T07:36:48.808Z,3.63
2022-09-16T07:39:19.294Z,3.58
2022-09-16T07:41:48.715Z,2.58
2022-09-16T07:44:20.449Z,2.85
2022-09-16T07:46:50.870Z,3.63
2022-09-16T07:49:19.078Z,2.60
2022-09-16T07:51:47.506Z,4.32
2022-09-16T07:54:19.962Z,2.25
2022-09-16T07:56:47.923Z,4.22
2022-09-16T07:59:19.629Z,3.40
2022-09-16T08:01:49.912Z,4.53
2022-09-16T08:04:19.838Z,3.10
2022-09-16T08:06:48.357Z,3.30
2022-09-16T08:12:07.782Z,3.88
2022-09-16T08:14:35.561Z,2.63
2022-09-16T08:17:03.830Z,3.22
2022-09-16T08:19:31.894Z,2.05
2022-09-16T08:21:59.753Z,3.42
2022-09-16T08:24:28.981Z,2.78
2022-09-16T08:29:31.469Z,3.88
2022-09-16T08:32:03.465Z,4.30
2022-09-16T08:34:31.419Z,3.72
2022-09-16T08:36:59.223Z,4.22
2022-09-16T08:39:29.448Z,6.55
2022-09-16T08:42:28.964Z,3.65
2022-09-16T08:45:15.078Z,3.83
2022-09-16T08:48:08.073Z,4.53
2022-09-16T08:50:42.642Z,2.88
2022-09-16T08:53:20.705Z,3.80
2022-09-16T08:55:52.307Z,4.38
2022-09-16T08:58:24.792Z,3.40
2022-09-16T09:01:00.852Z,3.92
2022-09-16T09:03:38.492Z,5.60
2022-09-16T09:06:27.969Z,5.72
2022-09-16T09:09:09.839Z,4.63
2022-09-16T09:11:51.245Z,5.35
2022-09-16T09:14:39.293Z,5.85
2022-09-16T09:17:20.256Z,6.18
2022-09-16T09:20:16.786Z,4.72
2022-09-16T09:23:07.914Z,5.38
2022-09-16T09:25:46.227Z,5.05
2022-09-16T09:28:49.934Z,5.63
2022-09-16T09:31:32.651Z,7.55
2022-09-16T09:34:21.259Z,4.63
2022-09-16T09:37:11.846Z,5.88
2022-09-16T09:40:00.832Z,5.18
2022-09-16T09:42:34.499Z,5.05
2022-09-16T09:45:17.653Z,11.45
2022-09-16T09:47:50.464Z,4.85
2022-09-16T09:50:25.966Z,5.60
2022-09-16T09:53:05.715Z,8.75
2022-09-16T09:55:35.670Z,6.43
2022-09-16T09:58:24.423Z,7.88
2022-09-16T10:00:58.584Z,7.15
2022-09-16T10:03:29.262Z,7.03
2022-09-16T10:05:58.365Z,5.28
2022-09-16T10:08:59.411Z,4.32
2022-09-16T10:11:31.429Z,7.15
2022-09-16T10:14:02.253Z,7.15
2022-09-16T10:16:37.215Z,5.68
2022-09-16T10:21:43.537Z,8.02
2022-09-16T10:24:31.290Z,2.42
2022-09-16T10:27:01.857Z,5.45
2022-09-16T10:29:30.207Z,5.65
2022-09-16T10:32:07.367Z,4.03
2022-09-16T10:34:42.982Z,4.32
2022-09-16T10:37:19.218Z,2.88
2022-09-16T10:39:54.416Z,7.10
2022-09-16T10:42:25.519Z,4.30
2022-09-16T10:44:59.622Z,6.93
2022-09-16T10:47:33.672Z,6.38
2022-09-16T10:50:05.766Z,6.15
2022-09-16T10:52:44.615Z,5.75
2022-09-16T10:55:25.507Z,4.25
2022-09-16T10:57:54.925Z,6.00
2022-09-16T11:00:31.437Z,6.50
2022-09-16T11:03:41.094Z,5.45
2022-09-16T11:06:27.307Z,3.30
2022-09-16T11:09:09.896Z,4.32
2022-09-16T11:12:07.601Z,4.63
2022-09-16T11:14:50.657Z,3.97
2022-09-16T11:17:41.411Z,5.75
2022-09-16T11:21:06.966Z,5.18
2022-09-16T11:23:57.095Z,3.47
2022-09-16T11:26:39.373Z,3.90
2022-09-16T11:29:31.314Z,4.38
2022-09-16T11:32:14.347Z,3.63
2022-09-16T11:35:10.017Z,5.90
2022-09-16T11:37:51.477Z,2.85
2022-09-16T11:40:34.314Z,4.28
2022-09-16T11:43:38.806Z,4.68
2022-09-16T11:46:21.214Z,4.13
2022-09-16T11:49:22.505Z,7.05
2022-09-16T11:52:14.845Z,4.28
2022-09-16T11:55:07.400Z,2.05
2022-09-16T11:57:41.769Z,4.65
2022-09-16T12:00:19.150Z,6.65
2022-09-16T12:02:58.462Z,8.77
2022-09-16T12:05:36.833Z,5.90
2022-09-16T12:08:22.641Z,3.13
2022-09-16T12:10:58.224Z,4.32
2022-09-16T12:13:35.059Z,3.08
2022-09-16T12:16:09.667Z,3.95
2022-09-16T12:18:45.786Z,6.72
2022-09-16T12:21:22.275Z,4.32
2022-09-16T12:23:59.362Z,5.28
2022-09-16T12:26:40.521Z,4.82
2022-09-16T12:29:18.339Z,5.07
2022-09-16T12:31:55.141Z,6.75
2022-09-16T12:34:31.735Z,4.40
2022-09-16T12:37:24.688Z,5.57
2022-09-16T12:39:52.923Z,5.63
2022-09-16T12:43:11.024Z,5.57
2022-09-16T12:46:22.581Z,4.07
2022-09-16T12:49:41.239Z,5.05
2022-09-16T12:52:54.602Z,5.20
2022-09-16T12:56:02.755Z,3.67
2022-09-16T12:59:22.781Z,5.05
2022-09-16T13:01:59.953Z,4.82
2022-09-16T13:04:35.190Z,4.68
2022-09-16T13:07:05.317Z,6.40
2022-09-16T13:09:38.778Z,6.80
2022-09-16T13:12:42.846Z,6.93
2022-09-16T13:15:26.170Z,7.90
2022-09-16T13:17:54.772Z,6.22
2022-09-16T13:20:33.525Z,8.48
2022-09-16T13:23:11.409Z,7.35
2022-09-16T13:25:50.480Z,5.93
2022-09-16T13:28:28.040Z,6.63
2022-09-16T13:30:57.342Z,10.93
2022-09-16T13:33:29.427Z,7.82
2022-09-16T13:36:31.165Z,4.22
2022-09-16T13:39:01.901Z,6.93
2022-09-16T13:41:34.859Z,4.32
2022-09-16T13:44:39.239Z,7.53
2022-09-16T13:47:16.743Z,8.05
2022-09-16T13:49:50.852Z,5.40
2022-09-16T13:52:29.320Z,7.18
2022-09-16T13:55:10.925Z,4.05
2022-09-16T13:57:58.539Z,3.60
2022-09-16T14:00:37.594Z,7.10
2022-09-16T14:03:45.588Z,6.00
2022-09-16T14:06:45.188Z,6.75
2022-09-16T14:09:30.952Z,4.05
2022-09-16T14:12:13.627Z,6.00
2022-09-16T14:14:49.107Z,4.57
2022-09-16T14:17:23.148Z,4.70
2022-09-16T14:19:58.910Z,5.55
2022-09-16T14:22:27.949Z,5.53
2022-09-16T14:25:06.221Z,3.42
2022-09-16T14:27:41.768Z,5.23
2022-09-16T14:30:19.531Z,6.13
2022-09-16T14:32:49.128Z,4.97
2022-09-16T14:35:23.730Z,5.65
2022-09-16T14:37:56.988Z,4.90
2022-09-16T14:40:28.179Z,9.63
2022-09-16T14:43:03.222Z,5.35
2022-09-16T14:45:32.819Z,5.70
2022-09-16T14:48:07.599Z,7.18
2022-09-16T14:50:44.092Z,4.57
2022-09-16T14:53:35.340Z,7.97
2022-09-16T14:56:06.017Z,4.47
2022-09-16T14:58:35.983Z,3.17
2022-09-16T15:01:12.308Z,7.90
2022-09-16T15:03:48.087Z,3.17
2022-09-16T15:08:55.329Z,5.10
2022-09-16T15:11:46.995Z,5.22
2022-09-16T15:14:16.496Z,3.30
2022-09-16T15:16:48.274Z,4.70
2022-09-16T15:19:21.938Z,6.55
2022-09-16T15:21:52.603Z,5.50
2022-09-16T15:24:25.867Z,6.97
2022-09-16T15:26:55.794Z,3.45
2022-09-16T15:29:31.987Z,6.05
2022-09-16T15:32:23.214Z,4.78
2022-09-16T15:35:11.862Z,4.50
2022-09-16T15:37:41.181Z,4.80
2022-09-16T15:40:31.968Z,4.07
2022-09-16T15:43:13.007Z,3.28
2022-09-16T15:45:42.995Z,3.83
2022-09-16T15:48:17.454Z,5.90
2022-09-16T15:50:51.073Z,5.55
2022-09-16T15:53:41.894Z,4.22
2022-09-16T15:56:25.578Z,5.28
2022-09-16T15:59:00.637Z,4.82
2022-09-16T16:01:43.452Z,5.28
2022-09-16T16:04:14.507Z,5.05
2022-09-16T16:06:53.440Z,6.35
2022-09-16T16:09:41.404Z,5.20
2022-09-16T16:12:13.777Z,6.43
2022-09-16T16:14:42.854Z,7.22
2022-09-16T16:17:15.212Z,4.50
2022-09-16T16:19:44.852Z,4.43
2022-09-16T16:22:14.275Z,4.43
2022-09-16T16:24:43.914Z,6.50
2022-09-16T16:27:12.014Z,4.35
2022-09-16T16:29:39.846Z,5.00
2022-09-16T16:32:10.326Z,6.00
2022-09-16T16:34:40.249Z,7.47
2022-09-16T16:37:19.154Z,6.13
2022-09-16T16:39:58.003Z,5.38
2022-09-16T16:42:28.723Z,8.10
2022-09-16T16:44:57.472Z,9.07
2022-09-16T16:47:25.301Z,6.15
2022-09-16T16:49:53.023Z,6.72
2022-09-16T16:52:20.826Z,8.07
2022-09-16T16:54:48.673Z,6.60
2022-09-16T16:57:17.766Z,8.43
2022-09-16T16:59:45.483Z,10.43
2022-09-16T17:02:14.930Z,8.82
2022-09-16T17:04:42.814Z,9.07
2022-09-16T17:07:27.654Z,10.70
2022-09-16T17:09:59.100Z,9.20
2022-09-16T17:12:28.372Z,9.23
2022-09-16T17:14:56.138Z,8.65
2022-09-16T17:17:27.781Z,7.15
2022-09-16T17:20:00.675Z,7.57
2022-09-16T17:22:28.487Z,15.48
2022-09-16T17:24:57.218Z,13.55
2022-09-16T17:27:29.614Z,7.60
2022-09-16T17:30:00.902Z,12.65
2022-09-16T17:32:28.718Z,7.95
2022-09-16T17:34:56.498Z,10.93
2022-09-16T17:37:24.466Z,7.10
2022-09-16T17:39:52.238Z,7.93
2022-09-16T17:42:20.478Z,8.10
2022-09-16T17:44:49.600Z,10.20
2022-09-16T17:47:17.392Z,6.20
2022-09-16T17:49:45.422Z,9.52
2022-09-16T17:52:13.145Z,11.40
2022-09-16T17:54:41.953Z,9.25
2022-09-16T17:57:09.715Z,10.43
2022-09-16T17:59:38.759Z,9.50
2022-09-16T18:02:09.710Z,11.00
2022-09-16T18:04:37.499Z,6.82
2022-09-16T18:07:05.351Z,7.30
2022-09-16T18:09:33.166Z,4.70
2022-09-16T18:12:01.383Z,6.10
2022-09-16T18:14:29.248Z,8.70
2022-09-16T18:16:57.140Z,5.22
2022-09-16T18:19:26.644Z,6.57
2022-09-16T18:21:54.783Z,5.70
2022-09-16T18:24:22.577Z,5.38
2022-09-16T18:26:50.414Z,4.65
2022-09-16T18:29:18.300Z,7.45
2022-09-16T18:31:48.603Z,3.80
2022-09-16T18:34:17.723Z,5.68
2022-09-16T18:36:46.882Z,5.50
2022-09-16T18:39:16.777Z,5.03
2022-09-16T18:41:46.140Z,5.10
2022-09-16T18:44:16.691Z,4.00
2022-09-16T18:46:44.680Z,3.95
2022-09-16T18:49:14.901Z,5.50
2022-09-16T18:51:51.620Z,3.58
2022-09-16T18:54:28.798Z,3.15
2022-09-16T18:57:01.900Z,4.90
2022-09-16T18:59:34.436Z,5.32
2022-09-16T19:02:04.208Z,3.05
2022-09-16T19:04:41.540Z,3.42
2022-09-16T19:07:14.467Z,4.63
2022-09-16T19:09:42.638Z,4.78
2022-09-16T19:12:13.796Z,4.57
2022-09-16T19:14:41.846Z,8.60
2022-09-16T19:17:10.865Z,4.43
2022-09-16T19:19:39.784Z,3.97
2022-09-16T19:22:07.964Z,3.63
2022-09-16T19:24:38.246Z,6.65
2022-09-16T19:27:06.022Z,5.00
2022-09-16T19:29:33.901Z,5.60
2022-09-16T19:32:03.562Z,8.32
2022-09-16T19:34:33.587Z,5.38
2022-09-16T19:37:01.416Z,4.57
2022-09-16T19:39:29.378Z,2.80
2022-09-16T19:42:03.468Z,6.85
2022-09-16T19:44:33.701Z,4.65
2022-09-16T19:47:02.322Z,5.25
2022-09-16T19:49:32.708Z,6.22
2022-09-16T19:52:02.142Z,2.83
2022-09-16T19:54:29.902Z,5.88
2022-09-16T19:56:59.977Z,7.35
2022-09-16T19:59:28.173Z,6.35
2022-09-16T20:01:57.174Z,5.10
2022-09-16T20:04:25.528Z,6.10
2022-09-16T20:06:53.290Z,4.07
2022-09-16T20:09:21.179Z,6.30
2022-09-16T20:11:49.430Z,5.10
2022-09-16T20:14:21.265Z,5.72
2022-09-16T20:16:51.365Z,4.65
2022-09-16T20:19:20.449Z,6.03
2022-09-16T20:21:48.806Z,4.10
2022-09-16T20:24:20.076Z,4.95
2022-09-16T20:26:49.682Z,5.38
2022-09-16T20:29:20.213Z,5.25
2022-09-16T20:31:50.196Z,7.60
2022-09-16T20:34:18.645Z,6.30
2022-09-16T20:36:46.704Z,6.60
2022-09-16T20:39:15.571Z,7.85
2022-09-16T20:41:45.609Z,8.05
2022-09-16T20:44:15.572Z,9.48
2022-09-16T20:46:45.277Z,5.60
2022-09-16T20:49:16.385Z,5.28
2022-09-16T20:51:45.531Z,8.33
2022-09-16T20:54:15.438Z,6.18
2022-09-16T20:56:46.350Z,12.48
2022-09-16T20:59:17.761Z,7.55
2022-09-16T21:01:48.416Z,10.48
2022-09-16T21:04:19.193Z,11.17
2022-09-16T21:06:47.538Z,9.97
2022-09-16T21:09:16.377Z,10.23
2022-09-16T21:11:44.915Z,10.13
2022-09-16T21:14:15.983Z,12.63
2022-09-16T21:16:46.811Z,14.77
2022-09-16T21:19:15.573Z,12.67
2022-09-16T21:21:46.191Z,6.40
2022-09-16T21:24:15.715Z,10.73
2022-09-16T21:26:45.256Z,12.93
2022-09-16T21:29:15.832Z,10.13
2022-09-16T21:31:43.987Z,9.83
2022-09-16T21:34:16.187Z,12.17
2022-09-16T21:36:45.161Z,10.63
2022-09-16T21:39:14.668Z,10.07
2022-09-16T21:41:43.469Z,6.83
2022-09-16T21:44:12.324Z,13.80
2022-09-16T21:46:46.061Z,8.93
2022-09-16T21:49:28.900Z,9.80
2022-09-16T21:51:58.931Z,10.37
2022-09-16T21:54:28.501Z,11.13
2022-09-16T21:56:56.673Z,12.07
2022-09-16T21:59:24.671Z,13.70
2022-09-16T22:01:52.974Z,8.23
2022-09-16T22:04:24.209Z,12.77
2022-09-16T22:06:55.404Z,13.90
2022-09-16T22:09:23.612Z,12.20
2022-09-16T22:11:51.922Z,12.47
2022-09-16T22:14:19.847Z,9.20
2022-09-16T22:16:47.689Z,6.07
2022-09-16T22:19:18.827Z,6.53
2022-09-16T22:21:50.237Z,13.27
2022-09-16T22:24:22.013Z,9.47
2022-09-16T22:26:51.832Z,9.97
2022-09-16T22:29:20.100Z,9.17
2022-09-16T22:31:48.646Z,12.53
2022-09-16T22:34:16.648Z,9.23
2022-09-16T22:36:44.459Z,10.83
2022-09-16T22:39:16.482Z,9.87
2022-09-16T22:41:45.835Z,9.17
2022-09-16T22:44:14.604Z,10.10
2022-09-16T22:46:45.320Z,10.57
2022-09-16T22:49:14.375Z,15.93
2022-09-16T22:51:42.512Z,9.70
2022-09-16T22:54:16.451Z,10.73
2022-09-16T22:56:44.734Z,11.70
2022-09-16T22:59:18.864Z,9.70
2022-09-16T23:01:48.011Z,8.93
2022-09-16T23:04:16.251Z,8.13
2022-09-16T23:06:45.537Z,13.50
2022-09-16T23:09:15.265Z,10.00
2022-09-16T23:11:43.468Z,14.43
2022-09-16T23:14:14.867Z,14.73
2022-09-16T23:16:42.680Z,11.63
2022-09-16T23:19:12.240Z,11.73
2022-09-16T23:21:41.782Z,13.33
2022-09-16T23:24:17.433Z,9.47
2022-09-16T23:29:15.593Z,10.50
2022-09-16T23:31:45.055Z,11.00
2022-09-16T23:34:17.060Z,10.17
2022-09-16T23:36:45.659Z,8.53
2022-09-16T23:39:17.091Z,11.63
2022-09-16T23:41:45.527Z,11.60
2022-09-16T23:44:15.557Z,9.87
2022-09-16T23:46:44.049Z,12.50
2022-09-16T23:49:12.564Z,11.27
2022-09-16T23:51:41.108Z,12.60
2022-09-16T23:54:09.537Z,13.87
2022-09-16T23:56:38.913Z,13.50
2022-09-16T23:59:06.686Z,13.30
